| time (UTC) | temp F | wind direction | speed MPH | gust MPH | rain 1hr in | rain 24hr in | rain mn in | humidity % | barometer mb |
| 20260903114605 | 51 | 259 | 0.0 | 0.0 | 0.00 | 0.00 | 0.13 | 94 | 1012.4 |
| 20260903113109 | 51 | 258 | 0.0 | 1.0 | 0.00 | 0.00 | 0.13 | 94 | 1012.4 |
| 20260903111602 | 51 | 255 | 0.0 | 0.0 | 0.00 | 0.00 | 0.12 | 94 | 1012.4 |
| 20260903104603 | 52 | 281 | 0.0 | 1.0 | 0.00 | 0.00 | 0.07 | 93 | 1012.5 |
| 20260903103102 | 51 | 248 | 0.0 | 1.0 | 0.00 | 0.00 | 0.05 | 93 | 1012.5 |
| 20260903101607 | 52 | 360 | 0.0 | 1.0 | 0.00 | 0.00 | 0.05 | 93 | 1012.5 |
| 20260903100104 | 52 | 288 | 0.0 | 1.0 | 0.00 | 0.00 | 0.04 | 93 | 1012.5 |
| 20260903094607 | 52 | 319 | 0.0 | 2.0 | 0.00 | 0.00 | 0.03 | 93 | 1012.4 |
| 20260903093104 | 52 | 280 | 0.0 | 1.0 | 0.00 | 0.00 | 0.03 | 93 | 1012.5 |
| 20260903091605 | 52 | 316 | 0.0 | 1.0 | 0.00 | 0.00 | 0.03 | 93 | 1012.7 |
| 20260903083102 | 52 | 346 | 1.0 | 2.0 | 0.00 | 0.00 | 0.03 | 93 | 1012.7 |
| 20260903081602 | 52 | 311 | 0.0 | 1.0 | 0.00 | 0.00 | 0.02 | 93 | 1012.7 |
| 20260903080103 | 52 | 282 | 0.0 | 0.0 | 0.00 | 0.00 | 0.02 | 92 | 1012.8 |
| 20260903074604 | 52 | 283 | 0.0 | 0.0 | 0.00 | 0.00 | 0.01 | 92 | 1012.8 |
| 20260903071607 | 52 | 273 | 0.0 | 1.0 | 0.00 | 0.00 | 0.01 | 91 | 1012.5 |
| 20260903064603 | 52 | 326 | 0.0 | 1.0 | 0.00 | 0.00 | 0.08 | 90 | 1012.5 |
| 20260903063102 | 53 | 34 | 1.0 | 3.0 | 0.00 | 0.00 | 0.07 | 89 | 1012.7 |
| 20260903061602 | 53 | 315 | 1.0 | 3.0 | 0.00 | 0.00 | 0.05 | 87 | 1012.7 |
| 20260903054605 | 54 | 305 | 0.0 | 1.0 | 0.00 | 0.00 | 0.02 | 82 | 1012.4 |
| 20260903051602 | 56 | 294 | 0.0 | 4.0 | 0.00 | 0.00 | 0.00 | 76 | 1012.3 |
| 20260903050107 | 56 | 304 | 1.0 | 7.0 | 0.00 | 0.00 | 0.00 | 74 | 1012.3 |
| 20260903044606 | 57 | 325 | 0.0 | 2.0 | 0.00 | 0.00 | 0.00 | 70 | 1012.5 |
| 20260903043103 | 57 | 287 | 0.0 | 5.0 | 0.00 | 0.00 | 0.00 | 64 | 1012.4 |
| 20260903041606 | 56 | 274 | 0.0 | 4.0 | 0.00 | 0.00 | 0.00 | 73 | 1012.4 |
| 20260903040104 | 56 | 297 | 0.0 | 3.0 | 0.00 | 0.00 | 0.00 | 76 | 1012.4 |
| 20260903034602 | 58 | 280 | 0.0 | 4.0 | 0.00 | 0.00 | 0.00 | 64 | 1012.4 |
| 20260903033103 | 60 | 280 | 2.0 | 7.0 | 0.00 | 0.00 | 0.00 | 59 | 1012.0 |
| 20260903031606 | 61 | 250 | 7.0 | 10.0 | 0.00 | 0.00 | 0.00 | 52 | 1011.9 |
| 20260903030103 | 62 | 257 | 1.0 | 9.0 | 0.00 | 0.00 | 0.00 | 51 | 1011.8 |
| 20260903024605 | 61 | 281 | 2.0 | 12.0 | 0.00 | 0.00 | 0.00 | 55 | 1011.9 |
| 20260903023105 | 62 | 271 | 9.0 | 12.0 | 0.00 | 0.00 | 0.00 | 53 | 1011.5 |
| 20260903021604 | 63 | 250 | 8.0 | 13.0 | 0.00 | 0.00 | 0.00 | 49 | 1011.3 |
| 20260903020103 | 65 | 251 | 6.0 | 18.0 | 0.00 | 0.00 | 0.00 | 43 | 1011.1 |
| 20260903014603 | 65 | 269 | 2.0 | 15.0 | 0.00 | 0.00 | 0.00 | 42 | 1011.1 |
| 20260903013106 | 67 | 220 | 6.0 | 16.0 | 0.00 | 0.00 | 0.00 | 40 | 1011.1 |
| 20260903011606 | 67 | 240 | 0.0 | 12.0 | 0.00 | 0.00 | 0.00 | 36 | 1011.1 |
| 20260903004606 | 68 | 305 | 1.0 | 9.0 | 0.00 | 0.00 | 0.00 | 36 | 1010.8 |
| 20260903003102 | 69 | 238 | 9.0 | 16.0 | 0.00 | 0.00 | 0.00 | 36 | 1010.9 |
| 20260903001602 | 70 | 176 | 3.0 | 9.0 | 0.00 | 0.00 | 0.00 | 33 | 1010.4 |
| 20260903000107 | 71 | 218 | 5.0 | 18.0 | 0.00 | 0.00 | 0.00 | 31 | 1010.6 |
| 20260902234606 | 72 | 198 | 5.0 | 21.0 | 0.00 | 0.00 | 0.00 | 30 | 1010.4 |
| 20260902233102 | 73 | 186 | 3.0 | 16.0 | 0.00 | 0.00 | 0.00 | 31 | 1010.5 |
| 20260902231603 | 73 | 167 | 11.0 | 15.0 | 0.00 | 0.00 | 0.00 | 29 | 1010.4 |
| 20260902230106 | 75 | 183 | 3.0 | 18.0 | 0.00 | 0.00 | 0.00 | 28 | 1010.4 |
| 20260902224602 | 74 | 261 | 1.0 | 22.0 | 0.00 | 0.00 | 0.00 | 28 | 1010.3 |
| 20260902223102 | 75 | 225 | 10.0 | 14.0 | 0.00 | 0.00 | 0.00 | 28 | 1010.1 |
| 20260902221602 | 77 | 135 | 3.0 | 13.0 | 0.00 | 0.00 | 0.00 | 28 | 1010.0 |
| 20260902214603 | 76 | 86 | 1.0 | 14.0 | 0.00 | 0.00 | 0.00 | 27 | 1010.2 |
| 20260902213103 | 74 | 221 | 6.0 | 23.0 | 0.00 | 0.00 | 0.00 | 27 | 1010.4 |
| 20260902211606 | 74 | 121 | 4.0 | 13.0 | 0.00 | 0.00 | 0.00 | 27 | 1010.2 |
| 20260902204605 | 74 | 150 | 7.0 | 14.0 | 0.00 | 0.00 | 0.00 | 30 | 1010.2 |
| 20260902203107 | 75 | 124 | 4.0 | 12.0 | 0.00 | 0.00 | 0.00 | 29 | 1010.2 |
| 20260902201605 | 76 | 155 | 3.0 | 15.0 | 0.00 | 0.00 | 0.00 | 28 | 1010.3 |
| 20260902200104 | 77 | 142 | 13.0 | 20.0 | 0.00 | 0.00 | 0.00 | 25 | 1010.3 |
| 20260902194604 | 76 | 121 | 3.0 | 14.0 | 0.00 | 0.00 | 0.00 | 28 | 1010.3 |
| 20260902193104 | 76 | 211 | 7.0 | 17.0 | 0.00 | 0.00 | 0.00 | 24 | 1010.4 |
| 20260902191603 | 76 | 238 | 1.0 | 14.0 | 0.00 | 0.00 | 0.00 | 26 | 1010.5 |
| 20260902190106 | 76 | 115 | 5.0 | 13.0 | 0.00 | 0.00 | 0.00 | 26 | 1010.5 |
| 20260902184603 | 75 | 79 | 6.0 | 25.0 | 0.00 | 0.00 | 0.00 | 26 | 1010.4 |
| 20260902183107 | 75 | 145 | 2.0 | 10.0 | 0.00 | 0.00 | 0.00 | 25 | 1010.4 |
| 20260902181603 | 73 | 172 | 2.0 | 6.0 | 0.00 | 0.00 | 0.00 | 31 | 1010.6 |
| 20260902174603 | 71 | 219 | 0.0 | 6.0 | 0.00 | 0.00 | 0.00 | 40 | 1010.5 |
| 20260902171603 | 69 | 349 | 0.0 | 7.0 | 0.00 | 0.00 | 0.00 | 45 | 1010.8 |
| 20260902164604 | 65 | 117 | 2.0 | 5.0 | 0.00 | 0.00 | 0.00 | 61 | 1010.7 |
| 20260902163106 | 63 | 112 | 2.0 | 3.0 | 0.00 | 0.00 | 0.00 | 60 | 1010.8 |
| 20260902161603 | 62 | 11 | 0.0 | 1.0 | 0.00 | 0.00 | 0.00 | 66 | 1010.5 |
| 20260902160105 | 60 | 15 | 0.0 | 1.0 | 0.00 | 0.00 | 0.00 | 70 | 1010.6 |
| 20260902154604 | 59 | 8 | 0.0 | 2.0 | 0.00 | 0.00 | 0.00 | 73 | 1010.9 |
| 20260902153103 | 58 | 255 | 0.0 | 1.0 | 0.00 | 0.00 | 0.00 | 73 | 1010.9 |
| 20260902151604 | 57 | 282 | 0.0 | 3.0 | 0.00 | 0.00 | 0.00 | 68 | 1010.7 |
| 20260902150103 | 57 | 222 | 0.0 | 1.0 | 0.00 | 0.00 | 0.00 | 73 | 1010.6 |
| 20260902144604 | 57 | 319 | 2.0 | 3.0 | 0.00 | 0.00 | 0.00 | 72 | 1010.7 |
| 20260902143104 | 57 | 90 | 0.0 | 7.0 | 0.00 | 0.00 | 0.00 | 71 | 1011.1 |
| 20260902141602 | 56 | 288 | 2.0 | 6.0 | 0.00 | 0.00 | 0.00 | 75 | 1011.1 |
| 20260902134604 | 55 | 10 | 0.0 | 2.0 | 0.00 | 0.00 | 0.00 | 77 | 1011.0 |
| 20260902133102 | 56 | 25 | 2.0 | 2.0 | 0.00 | 0.00 | 0.00 | 75 | 1010.7 |
| 20260902131603 | 57 | 142 | 0.0 | 3.0 | 0.00 | 0.00 | 0.00 | 72 | 1010.9 |
| 20260902130107 | 60 | 40 | 0.0 | 3.0 | 0.00 | 0.00 | 0.00 | 64 | 1010.9 |
| 20260902123102 | 61 | 278 | 7.0 | 14.0 | 0.00 | 0.00 | 0.00 | 54 | 1010.6 |
| 20260902121602 | 58 | 328 | 1.0 | 4.0 | 0.00 | 0.00 | 0.00 | 66 | 1010.1 |